createdAt,value
2019-04-19T00:00:20.535Z,1014.98
2019-04-19T00:01:20.454Z,1014.97
2019-04-19T00:02:20.003Z,1014.97
2019-04-19T00:03:24.289Z,1015.00
2019-04-19T00:04:21.524Z,1014.96
2019-04-19T00:05:20.058Z,1014.94
2019-04-19T00:06:26.059Z,1014.98
2019-04-19T00:07:22.860Z,1014.95
2019-04-19T00:08:33.462Z,1014.98
2019-04-19T00:09:32.231Z,1014.98
2019-04-19T00:10:30.401Z,1014.95
2019-04-19T00:11:27.925Z,1014.96
2019-04-19T00:12:33.381Z,1014.99
2019-04-19T00:13:19.782Z,1015.01
2019-04-19T00:14:19.191Z,1015.04
2019-04-19T00:15:20.114Z,1015.01
2019-04-19T00:16:19.529Z,1015.01
2019-04-19T00:17:23.312Z,1014.99
2019-04-19T00:18:20.976Z,1015.02
2019-04-19T00:19:34.102Z,1015.05
2019-04-19T00:20:36.477Z,1014.94
2019-04-19T00:21:33.747Z,1015.02
2019-04-19T00:22:32.067Z,1015.06
2019-04-19T00:23:27.951Z,1015.01
2019-04-19T00:24:19.141Z,1015.04
2019-04-19T00:25:19.672Z,1015.01
2019-04-19T00:26:19.130Z,1015.07
2019-04-19T00:27:20.146Z,1015.03
2019-04-19T00:28:28.659Z,1015.07
2019-04-19T00:29:27.953Z,1015.04
2019-04-19T00:30:33.180Z,1015.09
2019-04-19T00:31:33.077Z,1015.10
2019-04-19T00:32:32.492Z,1015.12
2019-04-19T00:33:29.035Z,1015.07
2019-04-19T00:34:19.092Z,1015.10
2019-04-19T00:35:20.114Z,1015.09
2019-04-19T00:36:19.846Z,1015.09
2019-04-19T00:37:19.070Z,1015.13
2019-04-19T00:38:35.745Z,1015.10
2019-04-19T00:39:35.619Z,1015.08
2019-04-19T00:40:34.999Z,1015.10
2019-04-19T00:41:35.804Z,1015.09
2019-04-19T00:42:35.659Z,1015.11
2019-04-19T00:43:40.834Z,1015.08
2019-04-19T00:44:43.071Z,1015.15
2019-04-19T00:45:31.210Z,1015.13
2019-04-19T00:46:34.357Z,1015.12
2019-04-19T00:47:30.146Z,1015.13
2019-04-19T00:48:35.059Z,1015.11
2019-04-19T00:49:30.143Z,1015.14
2019-04-19T00:50:29.399Z,1015.10
2019-04-19T00:51:38.633Z,1015.10
2019-04-19T00:52:38.332Z,1015.08
2019-04-19T00:53:28.682Z,1015.06
2019-04-19T00:54:27.482Z,1015.09
2019-04-19T00:55:26.032Z,1015.09
2019-04-19T00:56:32.590Z,1015.12
2019-04-19T00:57:28.306Z,1015.11
2019-04-19T00:58:25.158Z,1015.11
2019-04-19T00:59:19.972Z,1015.13
2019-04-19T01:00:26.816Z,1015.15
2019-04-19T01:01:23.198Z,1015.14
2019-04-19T01:02:21.423Z,1015.11
2019-04-19T01:03:27.434Z,1015.10
2019-04-19T01:04:24.858Z,1015.14
2019-04-19T01:05:22.012Z,1015.16
2019-04-19T01:06:21.621Z,1015.09
2019-04-19T01:07:25.401Z,1015.18
2019-04-19T01:08:22.628Z,1015.16
2019-04-19T01:09:31.207Z,1015.12
2019-04-19T01:10:33.929Z,1015.12
2019-04-19T01:11:31.792Z,1015.11
2019-04-19T01:12:28.841Z,1015.09
2019-04-19T01:13:37.827Z,1015.15
2019-04-19T01:14:31.233Z,1015.12
2019-04-19T01:15:28.858Z,1015.13
2019-04-19T01:16:31.209Z,1015.13
2019-04-19T01:17:31.576Z,1015.12
2019-04-19T01:18:28.798Z,1015.13
2019-04-19T01:19:20.832Z,1015.17
2019-04-19T01:20:18.845Z,1015.14
2019-04-19T01:21:19.453Z,1015.15
2019-04-19T01:22:23.538Z,1015.18
2019-04-19T01:23:20.112Z,1015.15
2019-04-19T01:24:25.591Z,1015.22
2019-04-19T01:25:24.054Z,1015.18
2019-04-19T01:26:19.931Z,1015.18
2019-04-19T01:27:24.938Z,1015.24
2019-04-19T01:28:22.985Z,1015.21
2019-04-19T01:29:21.218Z,1015.25
2019-04-19T01:30:27.661Z,1015.22
2019-04-19T01:31:22.449Z,1015.21
2019-04-19T01:32:21.306Z,1015.22
2019-04-19T01:33:24.843Z,1015.23
2019-04-19T01:34:22.838Z,1015.25
2019-04-19T01:35:21.160Z,1015.25
2019-04-19T01:36:25.060Z,1015.28
2019-04-19T01:37:22.442Z,1015.23
2019-04-19T01:38:19.024Z,1015.25
2019-04-19T01:39:32.175Z,1015.23
2019-04-19T01:40:38.784Z,1015.23
2019-04-19T01:41:33.369Z,1015.26
2019-04-19T01:42:36.754Z,1015.24
2019-04-19T01:43:37.255Z,1015.28
2019-04-19T01:44:39.940Z,1015.29
2019-04-19T01:45:40.453Z,1015.30
2019-04-19T01:46:39.383Z,1015.29
2019-04-19T01:47:37.486Z,1015.28
2019-04-19T01:48:33.881Z,1015.28
2019-04-19T01:49:35.242Z,1015.28
2019-04-19T01:50:40.447Z,1015.27
2019-04-19T01:51:39.162Z,1015.26
2019-04-19T01:52:47.212Z,1015.26
2019-04-19T01:53:34.528Z,1015.19
2019-04-19T01:54:39.590Z,1015.24
2019-04-19T01:55:24.806Z,1015.25
2019-04-19T01:56:21.316Z,1015.23
2019-04-19T01:57:18.629Z,1015.18
2019-04-19T01:58:20.809Z,1015.21
2019-04-19T01:59:18.615Z,1015.21
2019-04-19T02:00:31.315Z,1015.19
2019-04-19T02:01:25.167Z,1015.19
2019-04-19T02:02:22.560Z,1015.19
2019-04-19T02:03:18.755Z,1015.18
2019-04-19T02:04:23.143Z,1015.21
2019-04-19T02:05:20.918Z,1015.14
2019-04-19T02:06:27.661Z,1015.15
2019-04-19T02:07:24.214Z,1015.17
2019-04-19T02:08:19.204Z,1015.16
2019-04-19T02:09:29.268Z,1015.16
2019-04-19T02:10:34.751Z,1015.14
2019-04-19T02:11:32.735Z,1015.14
2019-04-19T02:12:34.621Z,1015.18
2019-04-19T02:13:24.745Z,1015.18
2019-04-19T02:14:23.681Z,1015.17
2019-04-19T02:15:29.697Z,1015.13
2019-04-19T02:16:23.083Z,1015.15
2019-04-19T02:17:19.695Z,1015.13
2019-04-19T02:18:24.162Z,1015.15
2019-04-19T02:19:21.826Z,1015.12
2019-04-19T02:20:18.569Z,1015.12
2019-04-19T02:21:22.718Z,1015.16
2019-04-19T02:22:25.664Z,1015.16
2019-04-19T02:23:19.800Z,1015.17
2019-04-19T02:24:21.578Z,1015.21
2019-04-19T02:25:23.579Z,1015.17
2019-04-19T02:26:21.506Z,1015.23
2019-04-19T02:27:19.978Z,1015.25
2019-04-19T02:28:24.518Z,1015.24
2019-04-19T02:29:21.806Z,1015.27
2019-04-19T02:30:31.281Z,1015.23
2019-04-19T02:31:35.873Z,1015.29
2019-04-19T02:32:34.174Z,1015.27
2019-04-19T02:33:47.918Z,1015.30
2019-04-19T02:35:45.974Z,1015.32
2019-04-19T02:36:57.255Z,1015.31
2019-04-19T02:37:52.946Z,1015.34
2019-04-19T02:38:46.610Z,1015.31
2019-04-19T02:39:45.141Z,1015.37
2019-04-19T02:41:51.643Z,1015.42
2019-04-19T02:42:44.587Z,1015.40
2019-04-19T02:43:54.289Z,1015.42
2019-04-19T02:44:53.458Z,1015.38
2019-04-19T02:46:01.671Z,1015.45
2019-04-19T02:47:00.382Z,1015.45
2019-04-19T02:48:54.485Z,1015.43
2019-04-19T02:51:13.308Z,1015.50
2019-04-19T02:51:50.588Z,1015.49
2019-04-19T02:53:51.592Z,1015.49
2019-04-19T02:54:52.395Z,1015.50
2019-04-19T02:55:59.676Z,1015.51
2019-04-19T02:57:02.605Z,1015.51
2019-04-19T02:58:40.157Z,1015.49
2019-04-19T02:59:50.659Z,1015.49
2019-04-19T03:01:05.369Z,1015.51
2019-04-19T03:01:58.448Z,1015.50
2019-04-19T03:03:50.093Z,1015.53
2019-04-19T03:05:51.797Z,1015.51
2019-04-19T03:06:30.566Z,1015.47
2019-04-19T03:07:19.527Z,1015.48
2019-04-19T03:08:18.615Z,1015.47
2019-04-19T03:09:18.186Z,1015.51
2019-04-19T03:10:21.539Z,1015.46
2019-04-19T03:11:35.139Z,1015.50
2019-04-19T03:12:37.034Z,1015.50
2019-04-19T03:13:34.255Z,1015.52
2019-04-19T03:14:31.574Z,1015.52
2019-04-19T03:15:41.050Z,1015.48
2019-04-19T03:16:37.172Z,1015.51
2019-04-19T03:17:34.634Z,1015.50
2019-04-19T03:18:34.891Z,1015.49
2019-04-19T03:19:33.119Z,1015.51
2019-04-19T03:20:30.305Z,1015.53
2019-04-19T03:21:30.805Z,1015.52
2019-04-19T03:22:35.715Z,1015.54
2019-04-19T03:23:30.748Z,1015.52
2019-04-19T03:24:36.899Z,1015.54
2019-04-19T03:25:31.497Z,1015.54
2019-04-19T03:26:33.637Z,1015.52
2019-04-19T03:27:27.779Z,1015.53
2019-04-19T03:28:28.925Z,1015.56
2019-04-19T03:29:26.874Z,1015.57
2019-04-19T03:30:42.008Z,1015.57
2019-04-19T03:31:51.585Z,1015.56
2019-04-19T03:33:00.404Z,1015.56
2019-04-19T03:34:51.879Z,1015.55
2019-04-19T03:35:46.692Z,1015.54
2019-04-19T03:36:36.938Z,1015.61
2019-04-19T03:37:39.595Z,1015.60
2019-04-19T03:38:33.810Z,1015.55
2019-04-19T03:39:36.988Z,1015.61
2019-04-19T03:40:34.877Z,1015.62
2019-04-19T03:41:51.104Z,1015.59
2019-04-19T03:42:40.931Z,1015.64
2019-04-19T03:43:35.242Z,1015.63
2019-04-19T03:44:31.119Z,1015.60
2019-04-19T03:45:35.270Z,1015.63
2019-04-19T03:46:48.138Z,1015.65
2019-04-19T03:47:42.040Z,1015.63
2019-04-19T03:48:39.337Z,1015.67
2019-04-19T03:49:36.234Z,1015.69
2019-04-19T03:50:31.798Z,1015.69
2019-04-19T03:51:46.160Z,1015.66
2019-04-19T03:52:37.658Z,1015.64
2019-04-19T03:53:45.557Z,1015.66
2019-04-19T03:54:35.493Z,1015.67
2019-04-19T03:55:37.472Z,1015.73
2019-04-19T03:56:37.942Z,1015.71
2019-04-19T03:57:32.676Z,1015.73
2019-04-19T03:58:20.624Z,1015.75
2019-04-19T03:59:18.342Z,1015.71
2019-04-19T04:00:17.844Z,1015.73
2019-04-19T04:01:19.034Z,1015.77
2019-04-19T04:02:24.588Z,1015.74
2019-04-19T04:03:24.232Z,1015.76
2019-04-19T04:04:22.196Z,1015.78
2019-04-19T04:05:20.757Z,1015.81
2019-04-19T04:06:22.980Z,1015.81
2019-04-19T04:07:22.825Z,1015.80
2019-04-19T04:08:21.407Z,1015.81
2019-04-19T04:09:18.295Z,1015.82
2019-04-19T04:10:24.006Z,1015.84
2019-04-19T04:11:21.440Z,1015.80
2019-04-19T04:12:33.556Z,1015.87
2019-04-19T04:13:30.343Z,1015.85
2019-04-19T04:14:27.964Z,1015.90
2019-04-19T04:15:31.145Z,1015.90
2019-04-19T04:16:26.937Z,1015.89
2019-04-19T04:17:18.550Z,1015.86
2019-04-19T04:18:17.735Z,1015.83
2019-04-19T04:19:18.618Z,1015.87
2019-04-19T04:20:17.791Z,1015.91
2019-04-19T04:21:20.373Z,1015.95
2019-04-19T04:22:23.869Z,1015.93
2019-04-19T04:23:25.425Z,1015.97
2019-04-19T04:24:24.897Z,1016.00
2019-04-19T04:25:23.436Z,1015.97
2019-04-19T04:26:23.936Z,1016.00
2019-04-19T04:27:31.718Z,1015.98
2019-04-19T04:28:38.219Z,1016.03
2019-04-19T04:29:22.870Z,1016.03
2019-04-19T04:30:27.982Z,1016.06
2019-04-19T04:31:24.435Z,1016.07
2019-04-19T04:32:28.037Z,1016.08
2019-04-19T04:33:33.576Z,1016.07
2019-04-19T04:34:34.545Z,1016.09
2019-04-19T04:35:33.189Z,1016.10
2019-04-19T04:36:36.500Z,1016.11
2019-04-19T04:37:34.760Z,1016.11
2019-04-19T04:38:25.706Z,1016.12
2019-04-19T04:39:17.581Z,1016.10
2019-04-19T04:40:18.702Z,1016.11
2019-04-19T04:41:21.801Z,1016.18
2019-04-19T04:42:26.832Z,1016.16
2019-04-19T04:43:31.271Z,1016.17
2019-04-19T04:44:33.294Z,1016.19
2019-04-19T04:45:32.947Z,1016.18
2019-04-19T04:46:39.917Z,1016.20
2019-04-19T04:47:35.341Z,1016.18
2019-04-19T04:48:38.579Z,1016.24
2019-04-19T04:49:43.568Z,1016.22
2019-04-19T04:50:47.727Z,1016.23
2019-04-19T04:51:34.689Z,1016.28
2019-04-19T04:52:25.465Z,1016.29
2019-04-19T04:53:17.476Z,1016.29
2019-04-19T04:54:18.525Z,1016.33
2019-04-19T04:55:18.024Z,1016.31
2019-04-19T04:56:17.458Z,1016.36
2019-04-19T04:57:26.525Z,1016.34
2019-04-19T04:58:25.102Z,1016.38
2019-04-19T04:59:21.777Z,1016.39
2019-04-19T05:00:21.201Z,1016.38
2019-04-19T05:01:29.132Z,1016.43
2019-04-19T05:02:31.405Z,1016.43
2019-04-19T05:03:41.405Z,1016.44
2019-04-19T05:04:29.733Z,1016.45
2019-04-19T05:05:34.597Z,1016.50
2019-04-19T05:06:36.926Z,1016.49
2019-04-19T05:07:34.046Z,1016.50
2019-04-19T05:08:36.304Z,1016.51
2019-04-19T05:09:33.578Z,1016.52
2019-04-19T05:10:33.467Z,1016.57
2019-04-19T05:11:34.245Z,1016.54
2019-04-19T05:12:46.218Z,1016.57
2019-04-19T05:13:33.370Z,1016.61
2019-04-19T05:14:33.953Z,1016.63
2019-04-19T05:15:38.289Z,1016.64
2019-04-19T05:16:41.726Z,1016.72
2019-04-19T05:18:34.833Z,1016.73
2019-04-19T05:19:41.610Z,1016.75
2019-04-19T05:20:38.027Z,1016.71
2019-04-19T05:21:35.008Z,1016.73
2019-04-19T05:22:29.108Z,1016.74
2019-04-19T05:23:33.126Z,1016.73
2019-04-19T05:24:46.947Z,1016.73
2019-04-19T05:25:41.708Z,1016.75
2019-04-19T05:27:40.036Z,1016.78
2019-04-19T05:28:37.141Z,1016.78
2019-04-19T05:29:29.147Z,1016.80
2019-04-19T05:30:17.400Z,1016.80
2019-04-19T05:31:29.022Z,1016.80
2019-04-19T05:32:24.187Z,1016.83
2019-04-19T05:33:30.802Z,1016.83
2019-04-19T05:34:38.979Z,1016.85
2019-04-19T05:35:31.004Z,1016.85
2019-04-19T05:36:37.326Z,1016.88
2019-04-19T05:37:36.411Z,1016.91
2019-04-19T05:38:42.637Z,1016.89
2019-04-19T05:39:37.189Z,1016.87
2019-04-19T05:40:34.078Z,1016.87
2019-04-19T05:41:31.022Z,1016.92
2019-04-19T05:42:35.361Z,1016.90
2019-04-19T05:43:54.029Z,1016.91
2019-04-19T05:44:43.308Z,1016.94
2019-04-19T05:46:41.752Z,1016.97
2019-04-19T05:47:29.336Z,1017.00
2019-04-19T05:48:31.428Z,1016.99
2019-04-19T05:49:35.896Z,1017.01
2019-04-19T05:50:35.726Z,1016.98
2019-04-19T05:51:38.705Z,1017.01
2019-04-19T05:52:36.655Z,1017.00
2019-04-19T05:53:27.886Z,1017.04
2019-04-19T05:54:18.783Z,1017.01
2019-04-19T05:55:19.116Z,1017.03
2019-04-19T05:56:17.890Z,1016.98
2019-04-19T05:57:37.129Z,1016.99
2019-04-19T05:58:25.265Z,1017.03
2019-04-19T05:59:29.198Z,1017.04
2019-04-19T06:00:29.253Z,1017.04
2019-04-19T06:01:36.126Z,1017.03
2019-04-19T06:02:26.291Z,1017.03
2019-04-19T06:03:27.247Z,1017.03
2019-04-19T06:04:37.146Z,1017.04
2019-04-19T06:05:47.098Z,1017.01
2019-04-19T06:06:37.469Z,1017.08
2019-04-19T06:07:30.529Z,1017.11
2019-04-19T06:08:25.210Z,1017.05
2019-04-19T06:09:17.585Z,1017.09
2019-04-19T06:10:17.384Z,1017.11
2019-04-19T06:11:23.122Z,1017.11
2019-04-19T06:12:22.977Z,1017.13
2019-04-19T06:13:18.703Z,1017.12
2019-04-19T06:14:38.375Z,1017.12
2019-04-19T06:15:40.604Z,1017.11
2019-04-19T06:16:35.034Z,1017.10
2019-04-19T06:17:33.333Z,1017.11
2019-04-19T06:18:28.241Z,1017.17
2019-04-19T06:19:37.338Z,1017.15
2019-04-19T06:20:34.111Z,1017.11
2019-04-19T06:21:33.971Z,1017.14
2019-04-19T06:22:35.459Z,1017.14
2019-04-19T06:23:38.216Z,1017.13
2019-04-19T06:24:40.676Z,1017.14
2019-04-19T06:25:47.635Z,1017.12
2019-04-19T06:28:00.702Z,1017.18
2019-04-19T06:28:44.238Z,1017.19
2019-04-19T06:29:46.162Z,1017.21
2019-04-19T06:30:36.518Z,1017.26
2019-04-19T06:31:42.298Z,1017.24
2019-04-19T06:32:40.449Z,1017.25
2019-04-19T06:33:31.837Z,1017.20
2019-04-19T06:34:36.484Z,1017.29
2019-04-19T06:35:29.447Z,1017.26
2019-04-19T06:36:17.950Z,1017.26
2019-04-19T06:37:21.428Z,1017.25
2019-04-19T06:38:16.777Z,1017.28
2019-04-19T06:39:16.746Z,1017.26
2019-04-19T06:40:23.316Z,1017.27
2019-04-19T06:41:21.508Z,1017.25
2019-04-19T06:42:18.662Z,1017.28
2019-04-19T06:43:30.718Z,1017.29
2019-04-19T06:44:41.687Z,1017.29
2019-04-19T06:45:31.743Z,1017.29
2019-04-19T06:46:31.834Z,1017.31
2019-04-19T06:47:26.723Z,1017.33
2019-04-19T06:48:21.855Z,1017.33
2019-04-19T06:49:22.026Z,1017.33
2019-04-19T06:50:24.739Z,1017.36
2019-04-19T06:51:26.441Z,1017.38
2019-04-19T06:52:21.798Z,1017.36
2019-04-19T06:53:16.860Z,1017.36
2019-04-19T06:54:24.878Z,1017.40
2019-04-19T06:55:24.945Z,1017.36
2019-04-19T06:56:24.941Z,1017.35
2019-04-19T06:57:25.660Z,1017.40
2019-04-19T06:58:22.915Z,1017.37
2019-04-19T06:59:30.127Z,1017.41
2019-04-19T07:00:33.164Z,1017.39
2019-04-19T07:01:29.274Z,1017.40
2019-04-19T07:02:17.941Z,1017.41
2019-04-19T07:03:17.740Z,1017.41
2019-04-19T07:04:16.947Z,1017.40
2019-04-19T07:05:32.504Z,1017.40
2019-04-19T07:06:33.586Z,1017.40
2019-04-19T07:07:34.454Z,1017.41
2019-04-19T07:09:57.033Z,1017.41
2019-04-19T07:10:48.146Z,1017.42
2019-04-19T07:11:43.722Z,1017.41
2019-04-19T07:12:34.352Z,1017.39
2019-04-19T07:13:27.580Z,1017.36
2019-04-19T07:14:21.383Z,1017.40
2019-04-19T07:15:43.993Z,1017.44
2019-04-19T07:16:39.405Z,1017.41
2019-04-19T07:17:34.263Z,1017.44
2019-04-19T07:18:30.188Z,1017.42
2019-04-19T07:19:36.261Z,1017.43
2019-04-19T07:20:30.081Z,1017.44
2019-04-19T07:21:37.284Z,1017.46
2019-04-19T07:22:37.712Z,1017.45
2019-04-19T07:23:42.039Z,1017.45
2019-04-19T07:24:43.455Z,1017.49
2019-04-19T07:25:42.335Z,1017.50
2019-04-19T07:26:38.525Z,1017.53
2019-04-19T07:27:31.101Z,1017.49
2019-04-19T07:28:23.139Z,1017.55
2019-04-19T07:29:16.848Z,1017.52
2019-04-19T07:30:16.433Z,1017.49
2019-04-19T07:31:17.016Z,1017.52
2019-04-19T07:32:17.786Z,1017.55
2019-04-19T07:33:26.094Z,1017.52
2019-04-19T07:34:34.441Z,1017.54
2019-04-19T07:35:43.742Z,1017.56
2019-04-19T07:36:36.146Z,1017.54
2019-04-19T07:37:34.102Z,1017.56
2019-04-19T07:38:53.895Z,1017.53
2019-04-19T07:39:44.333Z,1017.55
2019-04-19T07:40:37.097Z,1017.52
2019-04-19T07:41:33.823Z,1017.56
2019-04-19T07:42:36.262Z,1017.56
2019-04-19T07:43:30.032Z,1017.60
2019-04-19T07:44:25.927Z,1017.61
2019-04-19T07:45:25.182Z,1017.61
2019-04-19T07:46:33.857Z,1017.63
2019-04-19T07:47:27.845Z,1017.63
2019-04-19T07:48:20.848Z,1017.61
2019-04-19T07:49:17.391Z,1017.65
2019-04-19T07:50:22.729Z,1017.62
2019-04-19T07:51:25.094Z,1017.67
2019-04-19T07:52:21.451Z,1017.67
2019-04-19T07:53:22.962Z,1017.66
2019-04-19T07:54:20.272Z,1017.67
2019-04-19T07:55:17.813Z,1017.60
2019-04-19T07:56:31.389Z,1017.66
2019-04-19T07:59:42.355Z,1017.67
2019-04-19T08:00:42.775Z,1017.72
2019-04-19T08:02:49.647Z,1017.71
2019-04-19T08:04:01.122Z,1017.70
2019-04-19T08:04:48.820Z,1017.74
2019-04-19T08:05:52.869Z,1017.72
2019-04-19T08:08:56.950Z,1017.76
2019-04-19T08:09:43.190Z,1017.76
2019-04-19T08:11:06.469Z,1017.72
2019-04-19T08:12:38.205Z,1017.68
2019-04-19T08:13:53.819Z,1017.73
2019-04-19T08:15:55.010Z,1017.72
2019-04-19T08:17:22.381Z,1017.67
